Weather reports worldwide

Advertisment
Palma/Son Bonet, Spain (8302): temperature & dewpoint: 16.05.2019 18:00:00 - 22.05.2019 18:00:00 (CEST)Palma/Son Bonet, Spain (8302): wind speed: 16.05.2019 18:00:00 - 22.05.2019 18:00:00 (CEST)Palma/Son Bonet, Spain (8302): wind direction: 16.05.2019 18:00:00 - 22.05.2019 18:00:00 (CEST)Palma/Son Bonet, Spain (8302): visibility: 16.05.2019 18:00:00 - 22.05.2019 18:00:00 (CEST)
Date & Time tt [°C] td [°C] ff [km/h] ff [kn] dd vv [km]
22.05.2019 18:00:00 - - - - - -
22.05.2019 17:00:00 23,0 9,0 28 15 S 10
22.05.2019 16:00:00 24,0 9,0 26 14 SSW 10
22.05.2019 15:00:00 23,0 8,0 26 14 SSW 10
22.05.2019 14:00:00 24,0 9,0 21 11 SW 10
22.05.2019 13:00:00 24,0 6,0 16 9 SW 10
22.05.2019 12:00:00 24,0 6,0 11 6 SSW 10
22.05.2019 11:00:00 23,0 5,0 5 3 - 10
22.05.2019 10:00:00 20,0 8,0 4 2 NE 10
22.05.2019 09:00:00 17,0 8,0 4 2 N 10
22.05.2019 08:00:00 15,0 7,0 5 3 NNW 10
22.05.2019 07:00:00 13,0 7,0 8 4 N 10
22.05.2019 06:00:00 12,0 7,0 9 5 N 10
22.05.2019 05:00:00 12,0 7,0 5 3 N 10
22.05.2019 04:00:00 12,0 6,0 5 3 NNW 10
22.05.2019 03:00:00 12,0 7,0 8 4 N 10
22.05.2019 02:00:00 13,0 6,0 8 4 N 10
22.05.2019 01:00:00 14,0 7,0 8 4 NNW 10
22.05.2019 00:00:00 15,0 8,0 8 4 NNW 10
21.05.2019 23:00:00 17,0 13,0 2 1 - 10
21.05.2019 22:00:00 17,0 13,0 5 3 SSW 10
21.05.2019 21:00:00 18,0 13,0 11 6 SW 10
21.05.2019 20:00:00 19,0 9,0 11 6 SSW 10
21.05.2019 19:00:00 21,0 5,0 13 7 SSW 10
21.05.2019 18:00:00 21,0 7,0 2 1 - 10
21.05.2019 17:00:00 20,0 11,0 5 3 SSW 10
21.05.2019 16:00:00 20,0 9,0 15 8 SSW 10
21.05.2019 15:00:00 19,0 11,0 15 8 S 10
21.05.2019 14:00:00 20,0 9,0 11 6 S 10
21.05.2019 13:00:00 20,0 10,0 24 13 SSW 10
21.05.2019 12:00:00 24,0 5,0 21 11 SW 10
21.05.2019 11:00:00 23,0 4,0 8 4 - 10
21.05.2019 10:00:00 20,0 8,0 - - - 10
21.05.2019 09:00:00 18,0 8,0 8 4 NNW 10
21.05.2019 08:00:00 15,0 6,0 8 4 NNW 10
21.05.2019 07:00:00 13,0 6,0 8 4 N 10
21.05.2019 06:00:00 12,0 5,0 8 4 N 10
21.05.2019 05:00:00 13,0 4,0 5 3 N 10
21.05.2019 04:00:00 12,0 5,0 9 5 N 10
21.05.2019 03:00:00 13,0 5,0 5 3 NW 10
21.05.2019 02:00:00 13,0 4,0 5 3 WNW 10
21.05.2019 01:00:00 14,0 5,0 8 4 N 10
21.05.2019 00:00:00 16,0 8,0 13 7 NE 10
20.05.2019 23:00:00 15,0 10,0 9 5 ENE 10
20.05.2019 22:00:00 17,0 11,0 4 2 - 10
20.05.2019 21:00:00 18,0 7,0 9 5 SW 10
20.05.2019 20:00:00 20,0 8,0 18 10 SW 10
20.05.2019 19:00:00 20,0 8,0 24 13 SW 10
20.05.2019 18:00:00 24,0 3,0 24 13 SSW 10
20.05.2019 17:00:00 23,0 0,0 11 6 NW 10
20.05.2019 16:00:00 23,0 2,0 16 9 NNW 10
20.05.2019 15:00:00 22,0 2,0 22 12 NW 10
20.05.2019 14:00:00 22,0 4,0 18 10 NW 10
20.05.2019 13:00:00 22,0 5,0 16 9 NW 10
20.05.2019 12:00:00 21,0 6,0 11 6 WSW 10
20.05.2019 11:00:00 21,0 5,0 15 8 WNW 10
20.05.2019 10:00:00 19,0 6,0 16 9 WNW 10
20.05.2019 09:00:00 18,0 7,0 18 10 NNW 10
20.05.2019 08:00:00 17,0 8,0 18 10 NNW 10
20.05.2019 07:00:00 14,0 9,0 9 5 NW 10
20.05.2019 06:00:00 12,0 8,0 4 2 - 10
20.05.2019 05:00:00 12,0 7,0 8 4 N 10
20.05.2019 04:00:00 12,0 7,0 2 1 - 10
20.05.2019 03:00:00 13,0 7,0 5 3 N 10
20.05.2019 02:00:00 13,0 7,0 4 2 - 10
20.05.2019 01:00:00 14,0 7,0 4 2 SSE 10
20.05.2019 00:00:00 15,0 7,0 5 3 N 10
19.05.2019 23:00:00 15,0 7,0 8 4 N 10
19.05.2019 22:00:00 16,0 6,0 4 2 W 10
19.05.2019 21:00:00 17,0 6,0 8 4 - 10
19.05.2019 20:00:00 19,0 6,0 11 6 NW 10
19.05.2019 19:00:00 19,0 6,0 16 9 WNW 10
19.05.2019 18:00:00 19,0 5,0 21 11 NW 10
19.05.2019 17:00:00 19,0 5,0 22 12 NW 10
19.05.2019 16:00:00 19,0 4,0 22 12 NNW 10
19.05.2019 15:00:00 20,0 6,0 16 9 WNW 10
19.05.2019 14:00:00 20,0 4,0 18 10 NW 10
19.05.2019 13:00:00 19,0 6,0 15 8 WNW 10
19.05.2019 12:00:00 19,0 7,0 15 8 WNW 10
19.05.2019 11:00:00 18,0 7,0 21 11 NNW 10
19.05.2019 10:00:00 17,0 7,0 21 11 NNW 10
19.05.2019 09:00:00 16,0 7,0 24 13 NNW 10
19.05.2019 08:00:00 16,0 8,0 16 9 NW 10
19.05.2019 07:00:00 15,0 8,0 11 6 NW 10
19.05.2019 06:00:00 15,0 8,0 8 4 NW 10
19.05.2019 05:00:00 15,0 9,0 5 3 WNW 10
19.05.2019 04:00:00 13,0 7,0 2 1 - 10
19.05.2019 03:00:00 13,0 6,0 4 2 - 10
19.05.2019 02:00:00 13,0 6,0 5 3 N 10
19.05.2019 01:00:00 13,0 6,0 8 4 NNW 10
19.05.2019 00:00:00 15,0 6,0 2 1 - 10
18.05.2019 23:00:00 16,0 5,0 4 2 WSW 10
18.05.2019 22:00:00 18,0 4,0 8 4 W 10
18.05.2019 21:00:00 18,0 4,0 9 5 W 10
18.05.2019 20:00:00 19,0 3,0 9 5 NW 10
18.05.2019 19:00:00 19,0 3,0 13 7 NW 10
18.05.2019 18:00:00 21,0 3,0 21 11 NNW 10
18.05.2019 17:00:00 20,0 3,0 11 6 N 10
18.05.2019 16:00:00 20,0 3,0 15 8 NNW 10
18.05.2019 15:00:00 20,0 3,0 18 10 NNW 10
18.05.2019 14:00:00 20,0 7,0 13 7 NNW 10
18.05.2019 13:00:00 19,0 6,0 15 8 NNW 10
18.05.2019 12:00:00 18,0 7,0 18 10 NW 10
18.05.2019 11:00:00 18,0 7,0 13 7 NNW 10
18.05.2019 10:00:00 18,0 7,0 9 5 NW 10
18.05.2019 09:00:00 17,0 7,0 5 3 - 10
18.05.2019 08:00:00 15,0 9,0 5 3 NE 10
18.05.2019 07:00:00 14,0 9,0 5 3 SSE 10
18.05.2019 06:00:00 14,0 9,0 8 4 WNW 10
18.05.2019 05:00:00 15,0 10,0 9 5 NW 10
18.05.2019 04:00:00 15,0 10,0 9 5 NW 10
18.05.2019 03:00:00 16,0 10,0 11 6 WNW 10
18.05.2019 02:00:00 15,0 10,0 5 3 WNW 10
18.05.2019 01:00:00 16,0 9,0 15 8 NW 10
18.05.2019 00:00:00 16,0 9,0 4 2 - 10
17.05.2019 23:00:00 16,0 10,0 8 4 NNW 10
17.05.2019 22:00:00 16,0 9,0 8 4 WNW 10
17.05.2019 21:00:00 - - - - - -
17.05.2019 20:00:00 - - - - - -
17.05.2019 19:00:00 - - - - - -
17.05.2019 18:00:00 - - - - - -
17.05.2019 17:00:00 - - - - - -
17.05.2019 16:00:00 - - - - - -
17.05.2019 15:00:00 - - - - - -
17.05.2019 14:00:00 - - - - - -
17.05.2019 13:00:00 - - - - - -
17.05.2019 12:00:00 - - - - - -
17.05.2019 11:00:00 19,0 13,0 21 11 SW 10
17.05.2019 10:00:00 18,0 13,0 5 3 SW 10
17.05.2019 09:00:00 17,0 12,0 4 2 - 10
17.05.2019 08:00:00 16,0 12,0 9 5 E 10
17.05.2019 07:00:00 16,0 10,0 13 7 ENE 10
17.05.2019 06:00:00 15,0 10,0 8 4 ENE 10
17.05.2019 05:00:00 15,0 10,0 8 4 NE 10
17.05.2019 04:00:00 14,0 10,0 8 4 NNE 10
17.05.2019 03:00:00 14,0 11,0 9 5 NE 10
17.05.2019 02:00:00 15,0 11,0 11 6 NE 10
17.05.2019 01:00:00 15,0 11,0 9 5 NE 10
17.05.2019 00:00:00 15,0 10,0 11 6 ENE 10
16.05.2019 23:00:00 15,0 10,0 9 5 ENE 10
16.05.2019 22:00:00 16,0 10,0 11 6 SE 10
16.05.2019 21:00:00 17,0 9,0 15 8 SSE 10
16.05.2019 20:00:00 19,0 7,0 15 8 S 10
16.05.2019 19:00:00 19,0 9,0 21 11 SSW 10
16.05.2019 18:00:00 20,0 9,0 22 12 SW 10

tt = temperature
td = dewpoint
ff = wind speed
dd = wind direction
vv = visibility

Next stations